Time;durP1;ratioP1;P1;durP2;ratioP2;P2;SDS_P1;SDS_P2;PMS_P1;PMS_P2;Temp;Humidity;BMP_temperature;BMP_pressure;BME280_temperature;BME280_humidity;BME280_pressure;Samples;Min_cycle;Max_cycle;Signal;HPM_P1;HPM_P2
2021/11/04 00:02:07;;;;;;;1.20;1.13;;;8.60;59.10;;;;;;4934200;29;20504;-87
2021/11/04 00:04:33;;;;;;;1.70;1.60;;;8.60;58.90;;;;;;4934386;29;20471;-87
2021/11/04 00:06:59;;;;;;;1.63;1.53;;;8.60;58.20;;;;;;4934159;29;20259;-87
2021/11/04 00:09:24;;;;;;;1.97;1.87;;;8.50;59.00;;;;;;4934054;29;20235;-86
2021/11/04 00:11:50;;;;;;;3.13;1.90;;;8.60;59.00;;;;;;4934022;29;20231;-87
2021/11/04 00:14:16;;;;;;;2.00;1.90;;;8.60;59.70;;;;;;4934074;29;20188;-87
2021/11/04 00:16:42;;;;;;;2.47;2.30;;;8.60;59.90;;;;;;4934295;29;20438;-87
2021/11/04 00:19:08;;;;;;;2.13;1.87;;;8.60;59.20;;;;;;4934550;29;20184;-86
2021/11/04 00:21:33;;;;;;;2.10;2.00;;;8.60;59.40;;;;;;4937256;29;20415;-88
2021/11/04 00:23:59;;;;;;;1.80;1.70;;;8.50;60.10;;;;;;4937724;29;20234;-86
2021/11/04 00:26:24;;;;;;;1.70;1.60;;;8.60;60.70;;;;;;4937860;29;20296;-86
2021/11/04 00:28:52;;;;;;;1.37;1.27;;;8.60;59.40;;;;;;4937222;29;20187;-87
2021/11/04 00:31:18;;;;;;;1.23;1.17;;;8.60;58.60;;;;;;4937774;29;20173;-87
2021/11/04 00:33:44;;;;;;;1.30;1.20;;;8.60;58.40;;;;;;4938031;29;20424;-86
2021/11/04 00:36:10;;;;;;;1.60;1.50;;;8.50;58.50;;;;;;4939248;29;20206;-87
2021/11/04 00:38:36;;;;;;;1.40;1.30;;;8.50;59.20;;;;;;4937165;29;20546;-87
2021/11/04 00:41:01;;;;;;;1.23;1.23;;;8.50;59.00;;;;;;4937881;29;20424;-87
2021/11/04 00:43:27;;;;;;;1.60;1.47;;;8.50;58.40;;;;;;4937216;29;20206;-85
2021/11/04 00:45:53;;;;;;;1.23;1.13;;;8.50;58.80;;;;;;4937494;29;20244;-86
2021/11/04 00:48:18;;;;;;;1.20;1.00;;;8.60;57.90;;;;;;4937487;29;20176;-86
2021/11/04 00:50:44;;;;;;;1.33;1.23;;;8.60;58.50;;;;;;4937752;29;20420;-86
2021/11/04 00:53:10;;;;;;;1.40;1.30;;;8.60;58.40;;;;;;4939063;29;20271;-87
2021/11/04 00:55:35;;;;;;;1.40;1.30;;;8.50;58.30;;;;;;4937516;29;20271;-87
2021/11/04 00:58:01;;;;;;;1.30;1.20;;;8.50;58.80;;;;;;4938280;29;20219;-87
2021/11/04 01:00:27;;;;;;;1.27;1.17;;;8.50;57.90;;;;;;4937116;29;20219;-87
2021/11/04 01:02:52;;;;;;;2.40;1.43;;;8.60;58.20;;;;;;4937255;29;20194;-87
2021/11/04 01:05:18;;;;;;;1.63;1.30;;;8.60;58.20;;;;;;4937116;29;20266;-86
2021/11/04 01:07:45;;;;;;;1.00;1.00;;;8.50;57.90;;;;;;4937189;29;20180;-87
2021/11/04 01:10:11;;;;;;;1.00;1.00;;;8.60;58.00;;;;;;4936826;29;20995;-87
2021/11/04 01:12:37;;;;;;;1.10;1.10;;;8.60;59.10;;;;;;4938215;29;20416;-87
2021/11/04 01:15:05;;;;;;;1.30;1.20;;;8.60;58.70;;;;;;4936633;29;20502;-86
2021/11/04 01:17:31;;;;;;;0.90;0.90;;;8.60;58.60;;;;;;4937928;29;20455;-86
2021/11/04 01:19:57;;;;;;;1.30;1.20;;;8.60;59.00;;;;;;4936520;29;20416;-85
2021/11/04 01:22:23;;;;;;;1.50;1.40;;;8.60;58.60;;;;;;4936508;29;20476;-85
2021/11/04 01:24:48;;;;;;;1.20;1.10;;;8.60;58.90;;;;;;4936083;29;20464;-85
2021/11/04 01:27:14;;;;;;;1.40;1.30;;;8.60;58.50;;;;;;4936814;29;20180;-85
2021/11/04 01:29:40;;;;;;;1.33;1.30;;;8.60;58.00;;;;;;4937119;29;20176;-85
2021/11/04 01:32:06;;;;;;;0.90;0.90;;;8.50;58.20;;;;;;4936622;29;20263;-85
2021/11/04 01:34:31;;;;;;;1.30;1.20;;;8.50;58.00;;;;;;4936251;29;20203;-86
2021/11/04 01:36:57;;;;;;;1.00;1.00;;;8.50;57.70;;;;;;4936470;29;20858;-86
2021/11/04 01:39:23;;;;;;;1.37;0.90;;;8.50;57.80;;;;;;4936042;29;20519;-86
2021/11/04 01:41:48;;;;;;;1.27;1.17;;;8.50;59.30;;;;;;4936170;29;20444;-86
2021/11/04 01:44:14;;;;;;;1.43;1.30;;;8.50;59.00;;;;;;4936094;29;20216;-85
2021/11/04 01:46:40;;;;;;;1.20;1.10;;;8.50;60.00;;;;;;4937176;29;20667;-86
2021/11/04 01:49:06;;;;;;;1.53;1.43;;;8.40;60.60;;;;;;4935908;29;20195;-85
2021/11/04 01:51:32;;;;;;;1.23;1.13;;;8.40;62.20;;;;;;4935966;29;20510;-85
2021/11/04 01:53:57;;;;;;;2.57;1.50;;;8.40;62.70;;;;;;4935590;29;20707;-85
2021/11/04 01:56:24;;;;;;;1.50;1.40;;;8.30;63.00;;;;;;4935188;29;20215;-86
2021/11/04 01:58:51;;;;;;;1.87;1.30;;;8.20;64.50;;;;;;4935263;29;20274;-86
2021/11/04 02:01:17;;;;;;;1.30;1.20;;;8.20;66.70;;;;;;4934996;29;20479;-86
2021/11/04 02:03:51;;;;;;;1.40;1.30;;;8.20;67.10;;;;;;4935271;29;20475;-86
2021/11/04 02:06:33;;;;;;;1.63;1.53;;;8.10;67.50;;;;;;4935762;29;20183;-86
2021/11/04 02:09:15;;;;;;;2.00;1.60;;;7.90;68.90;;;;;;4935375;29;20502;-86
2021/11/04 02:11:43;;;;;;;2.53;2.03;;;7.80;71.20;;;;;;4935538;29;20436;-86
2021/11/04 02:14:13;;;;;;;2.40;2.20;;;7.70;71.50;;;;;;4935453;29;20576;-86
2021/11/04 02:16:41;;;;;;;2.00;1.90;;;7.60;72.90;;;;;;4935223;29;20426;-85
2021/11/04 02:19:33;;;;;;;2.27;2.17;;;7.60;72.90;;;;;;4936690;29;20461;-86
2021/11/04 02:22:01;;;;;;;1.93;1.83;;;7.50;74.20;;;;;;4936761;29;20785;-86
2021/11/04 02:24:47;;;;;;;2.17;2.07;;;7.50;73.40;;;;;;4934915;29;20462;-86
2021/11/04 02:27:15;;;;;;;2.50;2.40;;;7.40;73.30;;;;;;4935465;29;20423;-86
2021/11/04 02:29:42;;;;;;;2.33;2.23;;;7.50;74.10;;;;;;4935332;29;20442;-86
2021/11/04 02:32:09;;;;;;;2.47;2.37;;;7.40;74.80;;;;;;4935420;29;20923;-87
2021/11/04 02:34:38;;;;;;;2.30;2.20;;;7.40;73.20;;;;;;4935498;29;20725;-87
2021/11/04 02:37:05;;;;;;;2.17;2.07;;;7.40;74.40;;;;;;4937245;29;20510;-87
2021/11/04 02:39:31;;;;;;;2.30;2.20;;;7.50;75.40;;;;;;4937026;29;20415;-87
2021/11/04 02:41:58;;;;;;;2.60;2.40;;;7.40;74.00;;;;;;4935719;29;20411;-86
2021/11/04 02:44:26;;;;;;;2.37;2.17;;;7.40;74.30;;;;;;4934643;29;20470;-87
2021/11/04 02:46:54;;;;;;;1.83;1.73;;;7.40;74.70;;;;;;4935027;29;20676;-87
2021/11/04 02:49:22;;;;;;;2.40;2.20;;;7.50;75.40;;;;;;4935422;29;20494;-87
2021/11/04 02:51:48;;;;;;;2.50;2.00;;;7.40;73.20;;;;;;4935241;29;20412;-87
2021/11/04 02:54:14;;;;;;;1.43;1.33;;;7.40;73.00;;;;;;4950894;29;20443;-87
2021/11/04 02:56:49;;;;;;;1.47;1.37;;;7.40;72.20;;;;;;4934940;29;20603;-87
2021/11/04 02:59:17;;;;;;;1.40;1.30;;;7.40;70.90;;;;;;4935091;29;20613;-87
2021/11/04 03:01:44;;;;;;;2.43;1.93;;;7.30;70.10;;;;;;4934810;29;20428;-88
2021/11/04 03:04:13;;;;;;;1.40;1.30;;;7.40;71.10;;;;;;4935088;29;20998;-87
2021/11/04 03:06:39;;;;;;;1.30;1.30;;;7.40;70.60;;;;;;4936055;29;20415;-87
2021/11/04 03:09:05;;;;;;;0.83;0.83;;;7.40;70.80;;;;;;4934842;29;20422;-86
2021/11/04 03:11:31;;;;;;;0.80;0.80;;;7.40;69.80;;;;;;4935130;29;20431;-87
2021/11/04 03:13:57;;;;;;;1.00;1.00;;;7.40;69.20;;;;;;4934993;29;20209;-87
2021/11/04 03:16:25;;;;;;;0.73;0.70;;;7.30;70.60;;;;;;4934730;29;21011;-87
2021/11/04 03:18:52;;;;;;;1.00;0.80;;;7.30;71.30;;;;;;4933637;29;20790;-87
2021/11/04 03:21:19;;;;;;;1.20;1.10;;;7.30;67.80;;;;;;4932281;29;20434;-86
2021/11/04 03:23:45;;;;;;;0.80;0.70;;;7.20;68.80;;;;;;4932322;29;20466;-87
2021/11/04 03:26:12;;;;;;;1.17;1.07;;;7.30;68.90;;;;;;4933077;29;20522;-86
2021/11/04 03:28:38;;;;;;;0.73;0.73;;;7.20;69.60;;;;;;4933446;29;20437;-86
2021/11/04 03:31:05;;;;;;;1.00;0.90;;;7.30;69.70;;;;;;4934369;29;20782;-85
2021/11/04 03:33:33;;;;;;;1.17;1.07;;;7.10;68.50;;;;;;4932931;29;20424;-86
2021/11/04 03:35:59;;;;;;;0.80;0.77;;;7.20;69.60;;;;;;4932824;29;20833;-87
2021/11/04 03:38:27;;;;;;;0.50;0.50;;;7.20;69.10;;;;;;4932794;29;20462;-88
2021/11/04 03:40:57;;;;;;;0.80;0.80;;;7.10;68.10;;;;;;4933365;29;20908;-87
2021/11/04 03:43:23;;;;;;;1.10;0.80;;;7.10;69.00;;;;;;4932295;29;20476;-87
2021/11/04 03:45:49;;;;;;;0.60;0.60;;;7.10;68.20;;;;;;4933074;29;20419;-86
2021/11/04 03:48:16;;;;;;;1.53;0.80;;;7.10;69.60;;;;;;4934305;29;20172;-87
2021/11/04 03:50:42;;;;;;;0.77;0.60;;;7.10;66.90;;;;;;4935792;29;20428;-86
2021/11/04 03:53:08;;;;;;;2.10;0.70;;;7.10;67.80;;;;;;4935937;29;20781;-87
2021/11/04 03:55:34;;;;;;;0.70;0.50;;;7.00;68.70;;;;;;4934883;29;20191;-86
2021/11/04 03:58:01;;;;;;;0.80;0.80;;;7.00;68.30;;;;;;4937880;29;20545;-86
2021/11/04 04:00:27;;;;;;;0.80;0.80;;;7.10;68.20;;;;;;4937815;29;20459;-86
2021/11/04 04:02:52;;;;;;;0.70;0.70;;;7.10;68.30;;;;;;4938519;29;20424;-86
2021/11/04 04:05:38;;;;;;;0.70;0.70;;;7.00;69.30;;;;;;4937626;29;20419;-86
2021/11/04 04:08:04;;;;;;;0.80;0.80;;;7.10;67.90;;;;;;4937987;29;20581;-86
2021/11/04 04:10:33;;;;;;;1.43;0.70;;;7.10;67.10;;;;;;4942103;29;20423;-85
2021/11/04 04:13:01;;;;;;;2.70;0.83;;;7.10;67.60;;;;;;4943102;29;20437;-85
2021/11/04 04:15:28;;;;;;;0.73;0.73;;;7.10;68.00;;;;;;4936899;29;20422;-85
2021/11/04 04:17:54;;;;;;;0.90;0.80;;;7.10;66.30;;;;;;4937185;29;20505;-85
2021/11/04 04:20:20;;;;;;;1.30;1.20;;;7.10;67.80;;;;;;4938102;29;20455;-85
2021/11/04 04:22:46;;;;;;;1.00;1.00;;;7.10;66.80;;;;;;4937179;29;20618;-86
2021/11/04 04:25:11;;;;;;;1.17;0.80;;;7.00;65.30;;;;;;4953902;29;20517;-85
2021/11/04 04:27:37;;;;;;;1.53;0.80;;;7.00;66.60;;;;;;4952830;29;20215;-87
2021/11/04 04:30:04;;;;;;;1.00;1.00;;;7.00;66.80;;;;;;4951391;29;20182;-87
2021/11/04 04:32:30;;;;;;;2.33;1.00;;;7.00;68.00;;;;;;4951917;29;20253;-86
2021/11/04 04:34:55;;;;;;;0.80;0.80;;;7.00;65.50;;;;;;4952266;29;20428;-87
2021/11/04 04:37:21;;;;;;;0.97;0.97;;;7.10;65.90;;;;;;4936836;29;20173;-87
2021/11/04 04:39:47;;;;;;;1.37;1.27;;;7.00;65.10;;;;;;4951231;29;20590;-87
2021/11/04 04:42:12;;;;;;;1.10;1.10;;;7.00;65.30;;;;;;4952115;29;20424;-87
2021/11/04 04:44:38;;;;;;;0.93;0.93;;;7.10;65.00;;;;;;4936603;29;20203;-87
2021/11/04 04:47:04;;;;;;;1.00;1.00;;;7.00;65.70;;;;;;4951338;29;20219;-88
2021/11/04 04:49:30;;;;;;;1.20;1.20;;;7.00;65.00;;;;;;4936891;29;20253;-87
2021/11/04 04:51:55;;;;;;;1.10;1.10;;;7.10;66.60;;;;;;4951013;29;20541;-84
2021/11/04 04:54:21;;;;;;;1.90;1.10;;;7.00;65.90;;;;;;4951790;29;20664;-86
2021/11/04 04:56:50;;;;;;;1.10;1.00;;;7.00;66.00;;;;;;4951394;29;20688;-87
2021/11/04 04:59:15;;;;;;;1.43;1.33;;;7.10;66.30;;;;;;4951221;29;20486;-86
2021/11/04 05:01:41;;;;;;;1.50;1.40;;;7.10;65.80;;;;;;4937242;29;20416;-86
2021/11/04 05:04:07;;;;;;;1.30;1.10;;;7.10;65.20;;;;;;4937404;29;20592;-85
2021/11/04 05:06:32;;;;;;;1.00;1.00;;;7.10;65.60;;;;;;4951857;29;20246;-86
2021/11/04 05:08:59;;;;;;;1.03;1.03;;;7.10;65.20;;;;;;4951103;29;20203;-85
2021/11/04 05:11:24;;;;;;;1.47;1.37;;;7.00;65.00;;;;;;4952149;29;20231;-86
2021/11/04 05:13:50;;;;;;;1.50;1.40;;;7.00;66.30;;;;;;4951681;29;20790;-86
2021/11/04 05:16:16;;;;;;;1.37;1.20;;;7.10;66.10;;;;;;4952151;29;20175;-85
2021/11/04 05:18:41;;;;;;;1.67;1.57;;;7.10;65.80;;;;;;4951427;29;20184;-85
2021/11/04 05:21:07;;;;;;;2.27;1.80;;;7.10;67.40;;;;;;4952742;29;20183;-85
2021/11/04 05:23:33;;;;;;;1.37;1.27;;;7.10;64.70;;;;;;4952398;29;20291;-84
2021/11/04 05:25:58;;;;;;;1.27;1.23;;;7.00;66.00;;;;;;4936554;29;20191;-85
2021/11/04 05:28:24;;;;;;;1.67;1.57;;;7.00;65.30;;;;;;4952878;29;20269;-84
2021/11/04 05:30:50;;;;;;;2.57;1.80;;;7.00;65.90;;;;;;4951615;29;20270;-86
2021/11/04 05:33:16;;;;;;;1.80;1.70;;;7.00;66.30;;;;;;4952050;29;20247;-86
2021/11/04 05:35:41;;;;;;;1.63;1.53;;;7.00;66.20;;;;;;4952292;29;20827;-85
2021/11/04 05:38:07;;;;;;;1.70;1.60;;;7.10;66.00;;;;;;4951353;29;20192;-86
2021/11/04 05:40:35;;;;;;;1.67;1.60;;;7.00;65.80;;;;;;4951337;29;20556;-86
2021/11/04 05:43:01;;;;;;;2.20;2.00;;;7.00;65.90;;;;;;4940719;29;20211;-88
2021/11/04 05:45:27;;;;;;;1.60;1.50;;;7.00;64.40;;;;;;4934931;29;20428;-86
2021/11/04 05:47:54;;;;;;;1.53;1.43;;;7.00;64.30;;;;;;4952000;29;20434;-86
2021/11/04 05:50:20;;;;;;;1.90;1.80;;;6.90;63.80;;;;;;4950427;29;20435;-86
2021/11/04 05:52:46;;;;;;;1.53;1.43;;;7.00;65.10;;;;;;4935058;29;20475;-86
2021/11/04 05:55:12;;;;;;;1.70;1.60;;;6.90;64.90;;;;;;4938793;29;20420;-86
2021/11/04 05:57:37;;;;;;;2.50;2.00;;;6.90;65.50;;;;;;4937051;29;20470;-86
2021/11/04 06:00:04;;;;;;;1.73;1.63;;;6.90;66.00;;;;;;4950230;29;20211;-87
2021/11/04 06:02:30;;;;;;;1.60;1.50;;;6.90;65.10;;;;;;4923906;29;20231;-86
2021/11/04 06:04:56;;;;;;;1.77;1.67;;;7.00;66.00;;;;;;4937338;29;20900;-87
2021/11/04 06:07:22;;;;;;;1.70;1.60;;;7.00;64.40;;;;;;4935809;29;20397;-87
2021/11/04 06:09:47;;;;;;;1.47;1.30;;;7.00;63.80;;;;;;4939602;29;20513;-86
2021/11/04 06:12:13;;;;;;;1.93;1.83;;;6.90;63.70;;;;;;4930583;29;20394;-88
2021/11/04 06:14:39;;;;;;;2.10;2.00;;;6.90;62.00;;;;;;4951537;29;20728;-87
2021/11/04 06:17:05;;;;;;;2.10;2.00;;;6.90;63.20;;;;;;4938216;29;20222;-84
2021/11/04 06:19:31;;;;;;;2.97;1.67;;;6.80;64.20;;;;;;4917452;29;20416;-85
2021/11/04 06:21:56;;;;;;;1.60;1.50;;;6.90;63.10;;;;;;4931703;29;20184;-89
2021/11/04 06:24:22;;;;;;;1.67;1.57;;;6.90;64.40;;;;;;4932923;29;20875;-85
2021/11/04 06:26:48;;;;;;;1.53;1.40;;;6.90;63.60;;;;;;4917505;29;20184;-87
2021/11/04 06:29:13;;;;;;;1.60;1.50;;;6.90;63.70;;;;;;4932350;29;20184;-85
2021/11/04 06:31:39;;;;;;;2.00;1.90;;;6.90;63.90;;;;;;4931825;29;20180;-87
2021/11/04 06:34:05;;;;;;;3.27;2.73;;;6.90;64.20;;;;;;4932047;29;20195;-86
2021/11/04 06:36:31;;;;;;;2.27;2.07;;;7.00;64.50;;;;;;4931818;29;20796;-85
2021/11/04 06:38:59;;;;;;;3.50;1.87;;;7.00;63.30;;;;;;4931642;29;20436;-86
2021/11/04 06:41:24;;;;;;;2.30;1.90;;;7.00;63.60;;;;;;4931759;29;20184;-86
2021/11/04 06:43:50;;;;;;;2.60;2.40;;;7.00;62.40;;;;;;4932421;29;20472;-86
2021/11/04 06:46:23;;;;;;;2.90;1.97;;;7.10;62.50;;;;;;4932137;29;20177;-86
2021/11/04 06:48:59;;;;;;;3.53;2.53;;;7.10;62.00;;;;;;4932029;29;20545;-86
2021/11/04 06:51:28;;;;;;;1.63;1.53;;;7.10;63.00;;;;;;4931955;29;20938;-86
2021/11/04 06:53:56;;;;;;;2.30;1.63;;;7.10;62.30;;;;;;4935038;29;20455;-86
2021/11/04 06:56:23;;;;;;;2.13;1.93;;;7.00;63.20;;;;;;4931356;29;20472;-86
2021/11/04 06:58:51;;;;;;;2.10;2.00;;;7.10;62.00;;;;;;4915903;29;20436;-86
2021/11/04 07:01:19;;;;;;;1.17;1.13;;;7.00;62.90;;;;;;4915744;29;20431;-85
2021/11/04 07:03:49;;;;;;;1.97;1.80;;;7.10;63.00;;;;;;4915909;29;20463;-86
2021/11/04 07:06:24;;;;;;;1.60;1.50;;;7.00;62.50;;;;;;4931174;29;20447;-86
2021/11/04 07:08:58;;;;;;;1.90;1.80;;;7.10;62.90;;;;;;4915211;29;20419;-85
2021/11/04 07:11:25;;;;;;;2.20;2.00;;;7.10;63.10;;;;;;4931350;29;20491;-86
2021/11/04 07:13:52;;;;;;;5.40;1.60;;;7.10;62.30;;;;;;4914476;29;20420;-85
2021/11/04 07:16:23;;;;;;;1.97;1.77;;;7.20;62.60;;;;;;4915268;29;20837;-85
2021/11/04 07:18:51;;;;;;;1.30;1.23;;;7.20;63.20;;;;;;4915009;29;20491;-86
2021/11/04 07:21:39;;;;;;;1.83;1.73;;;7.20;62.80;;;;;;4915658;29;20423;-86
2021/11/04 07:24:07;;;;;;;1.50;1.40;;;7.20;63.20;;;;;;4915299;29;20497;-86
2021/11/04 07:26:41;;;;;;;2.30;2.20;;;7.10;62.80;;;;;;4915166;29;20980;-86
2021/11/04 07:29:09;;;;;;;1.80;1.70;;;7.10;63.00;;;;;;4914935;29;20515;-86
2021/11/04 07:31:37;;;;;;;2.77;2.43;;;7.20;62.90;;;;;;4916911;29;20440;-86
2021/11/04 07:34:05;;;;;;;2.00;1.90;;;7.20;61.90;;;;;;4919029;29;20426;-86
2021/11/04 07:36:36;;;;;;;1.50;1.40;;;7.20;60.90;;;;;;4919076;29;20447;-86
2021/11/04 07:39:03;;;;;;;1.80;1.70;;;7.30;62.50;;;;;;4918974;29;20431;-85
2021/11/04 07:41:30;;;;;;;2.10;1.70;;;7.30;66.90;;;;;;4918942;29;20912;-87
2021/11/04 07:43:58;;;;;;;2.10;2.00;;;7.40;62.30;;;;;;4919033;29;20468;-86
2021/11/04 07:46:25;;;;;;;2.10;1.90;;;7.40;63.00;;;;;;4918889;29;20427;-86
2021/11/04 07:48:50;;;;;;;1.57;1.43;;;7.40;61.50;;;;;;4918343;29;20480;-86
2021/11/04 07:51:16;;;;;;;1.47;1.37;;;7.40;62.10;;;;;;4918659;29;20424;-85
2021/11/04 07:53:42;;;;;;;1.67;1.43;;;7.40;62.20;;;;;;4918715;29;20180;-85
2021/11/04 07:56:09;;;;;;;1.60;1.50;;;7.40;62.60;;;;;;4918556;29;20194;-86
2021/11/04 07:58:36;;;;;;;2.40;1.70;;;7.40;63.70;;;;;;4918604;29;20642;-86
2021/11/04 08:01:05;;;;;;;2.03;1.83;;;7.40;63.90;;;;;;4920109;29;20423;-85
2021/11/04 08:03:31;;;;;;;2.30;2.10;;;7.30;64.20;;;;;;4918785;29;20464;-85
2021/11/04 08:05:57;;;;;;;2.57;2.37;;;7.40;65.70;;;;;;4918532;29;20427;-86
2021/11/04 08:08:23;;;;;;;1.80;1.70;;;7.30;66.40;;;;;;4918361;29;20853;-86
2021/11/04 08:10:53;;;;;;;2.37;1.80;;;7.30;67.10;;;;;;4919600;29;20416;-86
2021/11/04 08:13:20;;;;;;;1.83;1.73;;;7.20;68.10;;;;;;4918483;29;20476;-86
2021/11/04 08:15:46;;;;;;;1.60;1.50;;;7.30;69.40;;;;;;4919317;29;20456;-86
2021/11/04 08:18:12;;;;;;;2.23;2.00;;;7.20;69.60;;;;;;4919426;29;20458;-86
2021/11/04 08:20:38;;;;;;;4.93;2.00;;;7.20;69.60;;;;;;4920024;29;20439;-86
2021/11/04 08:23:15;;;;;;;1.93;1.83;;;7.10;68.30;;;;;;4921470;29;20185;-85
2021/11/04 08:25:42;;;;;;;2.20;2.00;;;7.10;69.50;;;;;;4921275;29;20495;-85
2021/11/04 08:28:08;;;;;;;2.30;2.20;;;7.20;70.40;;;;;;4924663;29;20496;-85
2021/11/04 08:30:35;;;;;;;2.70;2.00;;;7.20;70.00;;;;;;4924492;29;20441;-85
2021/11/04 08:33:01;;;;;;;2.50;2.30;;;7.20;68.90;;;;;;4920753;29;20782;-85
2021/11/04 08:35:27;;;;;;;2.30;2.10;;;7.20;69.60;;;;;;4918728;29;20428;-86
2021/11/04 08:37:54;;;;;;;1.87;1.77;;;7.10;69.60;;;;;;4918601;29;20676;-87
2021/11/04 08:40:20;;;;;;;3.00;2.80;;;7.20;71.90;;;;;;4918808;29;20432;-86
2021/11/04 08:42:46;;;;;;;3.50;2.60;;;7.20;72.20;;;;;;4917243;29;20491;-86
2021/11/04 08:45:12;;;;;;;2.93;2.70;;;7.20;71.50;;;;;;4916672;29;20496;-87
2021/11/04 08:47:39;;;;;;;2.63;2.43;;;7.20;70.50;;;;;;4918481;29;20212;-86
2021/11/04 08:50:07;;;;;;;3.17;2.47;;;7.20;70.60;;;;;;4918044;29;20533;-85
2021/11/04 08:52:33;;;;;;;3.33;2.70;;;7.30;72.80;;;;;;4917746;29;20479;-86
2021/11/04 08:54:59;;;;;;;5.80;3.40;;;7.20;71.20;;;;;;4917788;29;20461;-86
2021/11/04 08:57:25;;;;;;;3.53;2.87;;;7.20;71.60;;;;;;4917353;29;20543;-86
2021/11/04 08:59:51;;;;;;;4.10;3.70;;;7.20;71.40;;;;;;4927984;29;20438;-86
2021/11/04 09:02:18;;;;;;;3.27;2.77;;;7.30;72.90;;;;;;4952424;29;20428;-87
2021/11/04 09:04:48;;;;;;;3.83;3.50;;;7.30;73.90;;;;;;4936456;29;20211;-86
2021/11/04 09:07:16;;;;;;;2.50;2.30;;;7.30;73.50;;;;;;4936210;29;20518;-86
2021/11/04 09:09:41;;;;;;;2.80;2.60;;;7.30;73.30;;;;;;4936542;29;20424;-86
2021/11/04 09:12:08;;;;;;;2.60;2.40;;;7.30;74.60;;;;;;4953215;29;20440;-86
2021/11/04 09:14:34;;;;;;;5.77;4.17;;;7.30;74.00;;;;;;4936897;29;20435;-86
2021/11/04 09:17:03;;;;;;;3.40;2.90;;;7.40;73.50;;;;;;4936720;29;20491;-85
2021/11/04 09:19:29;;;;;;;3.13;2.90;;;7.40;74.80;;;;;;4937612;29;20443;-86
2021/11/04 09:21:55;;;;;;;3.03;2.70;;;7.40;74.80;;;;;;4952416;29;20474;-86
2021/11/04 09:24:21;;;;;;;3.13;2.83;;;7.50;74.90;;;;;;4952775;29;20231;-86
2021/11/04 09:26:47;;;;;;;3.90;2.40;;;7.40;74.00;;;;;;4952128;29;20454;-85
2021/11/04 09:29:12;;;;;;;3.20;2.53;;;7.40;74.80;;;;;;4952662;29;20273;-86
2021/11/04 09:31:38;;;;;;;2.60;2.40;;;7.50;74.90;;;;;;4951947;29;20625;-86
2021/11/04 09:34:04;;;;;;;2.77;2.57;;;7.50;74.00;;;;;;4937621;29;20180;-86
2021/11/04 09:36:30;;;;;;;2.33;2.10;;;7.50;74.90;;;;;;4951936;29;20191;-85
2021/11/04 09:38:58;;;;;;;2.90;2.10;;;7.50;74.30;;;;;;4936428;29;20196;-85
2021/11/04 09:41:24;;;;;;;2.87;2.67;;;7.60;74.90;;;;;;4935927;29;20495;-85
2021/11/04 09:43:50;;;;;;;2.70;2.07;;;7.50;75.00;;;;;;4951801;29;20467;-86
2021/11/04 09:46:15;;;;;;;3.50;2.03;;;7.50;75.50;;;;;;4936007;29;20184;-85
2021/11/04 09:48:41;;;;;;;2.30;2.20;;;7.60;75.50;;;;;;4951849;29;20423;-86
2021/11/04 09:51:09;;;;;;;1.90;1.80;;;7.60;76.30;;;;;;4951919;29;20542;-86
2021/11/04 09:53:35;;;;;;;1.87;1.77;;;7.60;73.20;;;;;;4936585;29;20966;-86
2021/11/04 09:56:02;;;;;;;1.60;1.50;;;7.60;75.00;;;;;;4951426;29;20616;-85
2021/11/04 09:58:29;;;;;;;1.70;1.40;;;7.50;74.70;;;;;;4935438;29;20204;-86
2021/11/04 10:00:55;;;;;;;2.30;1.93;;;7.60;74.20;;;;;;4935681;29;20424;-87
2021/11/04 10:03:21;;;;;;;1.50;1.30;;;7.60;73.90;;;;;;4935519;29;20854;-86
2021/11/04 10:05:52;;;;;;;2.50;2.20;;;7.50;70.80;;;;;;4935621;29;20495;-87
2021/11/04 10:08:32;;;;;;;2.00;1.30;;;7.50;75.20;;;;;;4935408;29;20920;-86
2021/11/04 10:11:06;;;;;;;0.97;0.97;;;7.50;74.10;;;;;;4935490;29;20506;-86
2021/11/04 10:13:33;;;;;;;1.70;1.37;;;7.50;69.80;;;;;;4935150;29;20419;-86
2021/11/04 10:15:59;;;;;;;1.30;1.20;;;7.40;71.70;;;;;;4934973;29;20428;-86
2021/11/04 10:18:25;;;;;;;3.30;3.10;;;7.40;72.30;;;;;;4934505;29;20420;-86
2021/11/04 10:20:56;;;;;;;2.10;1.40;;;7.40;74.60;;;;;;4934910;29;20518;-86
2021/11/04 10:23:22;;;;;;;1.27;1.17;;;7.50;74.30;;;;;;4934613;29;20434;-89
2021/11/04 10:25:48;;;;;;;1.67;1.10;;;7.50;74.90;;;;;;4934869;29;20466;-85
2021/11/04 10:28:30;;;;;;;3.40;1.00;;;7.50;73.40;;;;;;4934639;29;20415;-85
2021/11/04 10:30:57;;;;;;;1.17;1.07;;;7.50;73.20;;;;;;4934989;29;20420;-86
2021/11/04 10:33:27;;;;;;;1.33;1.23;;;7.50;72.30;;;;;;4935126;29;20419;-85
2021/11/04 10:36:03;;;;;;;2.10;1.10;;;7.50;71.80;;;;;;4934888;29;20430;-85
2021/11/04 10:38:45;;;;;;;1.30;1.20;;;7.50;71.80;;;;;;4934696;29;20431;-84
2021/11/04 10:41:34;;;;;;;1.17;1.03;;;7.50;73.40;;;;;;4935366;29;20866;-84
2021/11/04 10:44:03;;;;;;;2.77;2.20;;;7.60;73.20;;;;;;4936318;29;20498;-86
2021/11/04 10:46:32;;;;;;;3.00;1.70;;;7.50;71.10;;;;;;4935915;29;20423;-84
2021/11/04 10:49:01;;;;;;;1.87;1.70;;;7.60;74.30;;;;;;4934332;29;20861;-84
2021/11/04 10:51:28;;;;;;;2.00;1.90;;;7.60;73.60;;;;;;4935499;29;20412;-85
2021/11/04 10:54:01;;;;;;;1.53;1.43;;;7.60;73.80;;;;;;4934486;29;20437;-84
2021/11/04 10:56:28;;;;;;;1.50;1.40;;;7.60;72.10;;;;;;4934250;29;20444;-84
2021/11/04 10:58:58;;;;;;;1.83;1.73;;;7.60;71.90;;;;;;4934359;29;20433;-84
2021/11/04 11:01:29;;;;;;;1.50;1.40;;;7.50;72.30;;;;;;4934559;29;20459;-85
2021/11/04 11:04:06;;;;;;;2.30;1.53;;;7.60;71.60;;;;;;4934436;29;20467;-85
2021/11/04 11:06:38;;;;;;;1.60;1.50;;;7.50;70.90;;;;;;4934911;29;20453;-85
2021/11/04 11:09:07;;;;;;;2.00;1.90;;;7.60;71.50;;;;;;4951041;29;20434;-85
2021/11/04 11:11:37;;;;;;;2.07;1.87;;;7.60;71.50;;;;;;4935319;29;20446;-84
2021/11/04 11:14:03;;;;;;;2.00;1.90;;;7.60;73.10;;;;;;4935134;29;20446;-84
2021/11/04 11:16:29;;;;;;;1.80;1.70;;;7.60;71.80;;;;;;4934650;29;20427;-84
2021/11/04 11:18:59;;;;;;;1.73;1.63;;;7.70;71.40;;;;;;4934187;29;20184;-85
2021/11/04 11:21:29;;;;;;;3.17;1.87;;;7.70;70.10;;;;;;4934553;29;20950;-85
2021/11/04 11:23:56;;;;;;;1.73;1.63;;;7.70;71.80;;;;;;4934201;29;20473;-85
2021/11/04 11:26:22;;;;;;;2.47;2.07;;;7.70;73.20;;;;;;4934027;29;20857;-85
2021/11/04 11:28:48;;;;;;;2.23;2.07;;;7.70;71.30;;;;;;4934664;29;20454;-84
2021/11/04 11:31:15;;;;;;;2.30;2.20;;;7.70;73.20;;;;;;4935299;29;20503;-84
2021/11/04 11:33:43;;;;;;;2.17;2.07;;;7.60;73.10;;;;;;4934105;29;20521;-86
2021/11/04 11:36:17;;;;;;;2.97;2.00;;;7.60;73.60;;;;;;4934722;29;20849;-85
2021/11/04 11:38:58;;;;;;;3.23;2.77;;;7.70;74.60;;;;;;4934262;29;20431;-84
2021/11/04 11:41:31;;;;;;;4.23;2.70;;;7.60;73.30;;;;;;4933895;29;20465;-83
2021/11/04 11:44:07;;;;;;;2.20;2.10;;;7.70;73.20;;;;;;4933768;29;20474;-83
2021/11/04 11:47:03;;;;;;;2.97;2.77;;;7.70;72.00;;;;;;4933986;29;20423;-84
2021/11/04 11:49:30;;;;;;;3.20;3.00;;;7.80;71.20;;;;;;4949726;29;20467;-85
2021/11/04 11:51:57;;;;;;;3.17;2.97;;;7.70;71.10;;;;;;4933799;29;20427;-84
2021/11/04 11:54:46;;;;;;;4.10;3.80;;;7.70;73.20;;;;;;4933614;29;20455;-84
2021/11/04 11:57:12;;;;;;;4.90;4.60;;;7.80;73.20;;;;;;4933475;29;20452;-84
2021/11/04 11:59:52;;;;;;;5.10;4.70;;;7.80;69.30;;;;;;4933646;29;20435;-84
2021/11/04 12:02:39;;;;;;;4.57;4.27;;;7.70;67.60;;;;;;4949663;29;20773;-84
2021/11/04 12:05:25;;;;;;;4.80;4.20;;;7.80;70.20;;;;;;4933821;29;20471;-85
2021/11/04 12:08:13;;;;;;;5.60;5.10;;;7.80;71.30;;;;;;4934707;29;20801;-85
2021/11/04 12:10:42;;;;;;;5.43;4.93;;;7.80;70.20;;;;;;4933505;29;20423;-84
2021/11/04 12:13:32;;;;;;;5.07;4.67;;;7.80;70.20;;;;;;4933596;29;20938;-85
2021/11/04 12:16:15;;;;;;;5.50;5.00;;;7.90;70.30;;;;;;4934032;29;20821;-86
2021/11/04 12:19:02;;;;;;;6.07;5.57;;;7.90;69.20;;;;;;4937176;29;20502;-86
2021/11/04 12:21:34;;;;;;;5.80;5.20;;;7.90;68.50;;;;;;4937750;29;20436;-87
2021/11/04 12:24:04;;;;;;;5.47;5.03;;;7.90;70.30;;;;;;4952696;29;20485;-84
2021/11/04 12:26:35;;;;;;;6.10;5.60;;;8.00;70.00;;;;;;4937225;29;20486;-85
2021/11/04 12:29:05;;;;;;;6.67;6.07;;;8.00;69.30;;;;;;4936207;29;20510;-87
2021/11/04 12:31:32;;;;;;;6.60;6.00;;;8.10;69.80;;;;;;4937035;29;20427;-86
2021/11/04 12:34:02;;;;;;;7.03;6.40;;;8.00;68.30;;;;;;4936805;29;20517;-85
2021/11/04 12:36:42;;;;;;;7.73;6.97;;;8.10;70.80;;;;;;4936568;29;20813;-85
2021/11/04 12:39:18;;;;;;;7.40;6.70;;;8.20;71.60;;;;;;4936112;29;20434;-85
2021/11/04 12:41:49;;;;;;;6.80;6.20;;;8.30;69.40;;;;;;4952879;29;20427;-85
2021/11/04 12:44:15;;;;;;;6.20;5.70;;;8.30;67.60;;;;;;4936909;29;20475;-85
2021/11/04 12:46:47;;;;;;;6.10;5.60;;;8.20;66.80;;;;;;4935325;29;20482;-85
2021/11/04 12:49:14;;;;;;;7.20;6.60;;;8.20;66.70;;;;;;4935988;29;20782;-85
2021/11/04 12:51:40;;;;;;;5.93;5.37;;;8.30;68.80;;;;;;4936702;29;20427;-84
2021/11/04 12:54:06;;;;;;;6.60;5.88;;;8.30;63.60;;;;;;4936350;29;20444;-85
2021/11/04 12:56:47;;;;;;;5.37;4.87;;;8.20;65.60;;;;;;4937585;29;20259;-85
2021/11/04 12:59:36;;;;;;;5.80;5.27;;;8.20;64.40;;;;;;4936790;29;20416;-85
2021/11/04 13:02:17;;;;;;;5.53;5.03;;;8.20;63.10;;;;;;4936298;29;20424;-86
2021/11/04 13:04:47;;;;;;;5.30;4.90;;;8.20;63.70;;;;;;4937313;29;20871;-85